arxmliv
arxmliv build tool
 
KWARC group
LaTeXML
About
   
 

Detailed info

Back to Homepage

List of missing_macros

No. Date Filename num_warningnum_errornum_xmargok_xmargnum_xmathok_xmathMissing macros
142401 2013-03-03 18:36:55 /0308/gr-qc.0308034 350000[\topmargin, \evensidemargin, \textheight, \oddsidemargin, \textwidth].
142402 2013-03-03 18:36:08 /0308/gr-qc.0308022 240000[\catchline, \abstracts, \ttbl]; 1 missing file[ws.sty].
142403 2013-03-03 18:36:07 /0308/gr-qc.0308028 1660000[\psplot, \psaxes].
142404 2013-03-03 18:35:17 /0308/gr-qc.0308015 610000[\psfrag].
142405 2013-03-03 18:34:33 /0308/cs.0308029 179180000[\dottedline, \Thicklines, \matrixput, \drawline, \path, \dashline].
142406 2013-03-03 18:34:12 /0308/cs.0308042 030000[\And, \AND]; 1 missing file[nips2003e.sty].
142407 2013-03-03 18:34:07 /0308/cs.0308044 0110000[\conferenceinfo, \affaddr, \numberofauthors, \alignauthor, \theappendix, {definition}, \crdata, \CopyrightYear, \email, \balancecolumns, \newdef].
142408 2013-03-03 18:33:42 /0308/gr-qc.0308004 5740000[\om, \sR, \bG, \scrimtrc, \lI, \abs, \sect, \defterm, \scri, \cmfld, \EMF, \kO, \spr, \PHI, \norm, \THT, \rO, \kG, \intT, \sI, \period, \scale, \spcm, \bO, \mfld, \lR, \clapse, \sG, \textdash, \Ptype, \comma, \qO, \vague, \afp, \lO, \lG, \scripoint, \mR,
142409 2013-03-03 18:33:23 /0308/cs.0308030 3270000[Align, \txt, \xymatrix, \ar]; 1 missing file[xy.sty].
142410 2013-03-03 18:33:09 /0308/cs.0308032 1210000[\lpage, \fpage, \citep, {article}, \atitle, \address, \yr, \jtitle, \city, \orgname, \etal, {book}, \vol, \snm, \bktitle, \recto, \verso, \init, \fnm, \citet, {subabstract}]; 1 missing file[bioinformatics-altered.cls].
142411 2013-03-03 18:33:03 /0308/cs.0308036 520000[{keywords}, \PARstart]; 1 missing file[IEEEtran.cls].
142412 2013-03-03 18:32:54 /0308/cs.0308014 820000[{@proof}].
142413 2013-03-03 18:32:35 /0308/cs.0308022 020000[\headrulewidth]; 1 missing file[boxedminipage.sty].
142414 2013-03-03 18:32:32 /0308/cs.0308002 47180000[{keywords}, \firstpageno, \citep, \editor, \graphicspath, \name, \ShortHeadings, \includegraphics, \email, \acks, \addr, \citet]; 1 missing file[jmlr2e.sty].
142415 2013-03-03 18:32:11 /0308/cond-mat.0308624 4710000[\psfrag].
142416 2013-03-03 18:32:04 /0308/cs.0308007 420000[{keywords}, \email]; 1 missing file[tlp.cls].
142417 2013-03-03 18:32:03 /0308/cs.0308006 5120000[{lemma}, {theorem}, \midrule, \addlinespace, \cmidrule, {AMS}, {corollary}, \psfrag, \toprule, \bottomrule, {proposition}]; 1 missing file[umlaut.sty].
142418 2013-03-03 18:31:41 /0308/cs.0308011 1590000[\WhileDo, \dontprintsemicolon, {algorithm}, \lIf, \ForEachDo, \SetKwFor].
142419 2013-03-03 18:31:11 /0308/cond-mat.0308622 240000[\twofigures, \@affiliation, \onefigure].
142420 2013-03-03 18:30:44 /0308/cond-mat.0308609 010000[\affiliation].
142421 2013-03-03 18:30:14 /0308/cond-mat.0308614 1150000[\kword, \abst, \inst, \recdate, \acknowledgment].
142422 2013-03-03 18:28:45 /0308/cond-mat.0308591 1510000[\psfrag].
142423 2013-03-03 18:28:20 /0308/cond-mat.0308594 010000[\psfrag].
142424 2013-03-03 18:27:32 /0308/cond-mat.0308572 1170000[\address, \thanksref, \PACS, \sep, {frontmatter}, {keyword}]; 1 missing file[PHYEAUTH.cls].
142425 2013-03-03 18:27:16 /0308/cond-mat.0308483 69600000[\rlvec, \drawdim, \setunitscale, {texdraw}, \fcir, \htext, \linewd, \lcir, \lpatt, \move, \lellip].
142426 2013-03-03 18:27:15 /0308/cond-mat.0308557 570000[\ack, \address, \thanksref, \PACS, \sep, {frontmatter}, {keyword}]; 1 missing file[PHYEAUTH.cls].
142427 2013-03-03 18:27:07 /0308/cond-mat.0308543 340000[\@affiliation].
142428 2013-03-03 18:26:40 /0308/cond-mat.0308531 050000[\@affiliation].
142429 2013-03-03 18:26:27 /0308/cond-mat.0308515 2340000[Align, \xymatrix, \ar]; 1 missing file[xy.sty].
142430 2013-03-03 18:26:06 /0308/cond-mat.0308509 21250000[\Tr, \eqsec, \ie]; 1 missing file[size11.clo.sty].
142431 2013-03-03 18:25:02 /0308/cond-mat.0308489 30480000[\affil, {keywords}, \articletitle, \email, {chapthebibliography}, \normallatexbib].
142432 2013-03-03 18:24:46 /0308/cond-mat.0308506 130000[\kword, \abst, \inst].
142433 2013-03-03 18:24:24 /0308/cond-mat.0308472 240000[\kword, \abst, \inst, \recdate].
142434 2013-03-03 18:24:24 /0308/cond-mat.0308475 030000[\extrasenglish, \dateenglish, \captionsenglish].
142435 2013-03-03 18:23:30 /0308/cond-mat.0308448 710000[\mathinner].
142436 2013-03-03 18:23:08 /0308/cond-mat.0308442 4810000[\setkeys].
142437 2013-03-03 18:22:29 /0308/cond-mat.0308414 6510000[\pyear, \vol, {reference}, \keywords, \received].
142438 2013-03-03 18:22:00 /0308/cond-mat.0308407 31110000[Align, {narrowtabular}, \@affiliation].
142439 2013-03-03 18:21:28 /0308/cond-mat.0308408 6440000[\pyear, \vol, {reference}, \keywords, \received].
142440 2013-03-03 18:21:25 /0308/cond-mat.0308409 040000[\epsfbox, \abstracts, \epsfxsize]; 1 missing file[ws.sty].
142441 2013-03-03 18:21:04 /0308/cond-mat.0308400 1530000[\address, \runninghead]; 1 missing file[jltp.sty].
142442 2013-03-03 18:20:36 /0308/cond-mat.0308379 74160000[\endSb, \proof, \theappendix, \dfrac, \endproof, \Sb].
142443 2013-03-03 18:20:10 /0308/cond-mat.0308388 540000[\affil, \articletitle, \upperandlowercase, \normallatexbib].
142444 2013-03-03 18:20:01 /0308/cond-mat.0308371 360000[\address, \thanksref, \PACS, \sep, {frontmatter}, {keyword}]; 1 missing file[PHYEAUTH.cls].
142445 2013-03-03 18:19:44 /0308/cond-mat.0308364 240000[\epsfbox, \epsfysize]; 2 missing files[subeqna.sty, jpsjbs.sty].
142446 2013-03-03 18:19:43 /0308/cond-mat.0308380 180000[\sodauthor, \rauthor, \address, \sodtitle, \dates, \lat, \PACS, \rtitle].
142447 2013-03-03 18:19:37 /0308/cond-mat.0308361 740000[\epsfbox, \abstracts, \epsfxsize]; 1 missing file[ws.sty].
142448 2013-03-03 18:19:17 /0308/cond-mat.0308345 030000[\extrasenglish, \dateenglish, \captionsenglish].
142449 2013-03-03 18:18:57 /0308/cond-mat.0308356 36900000[\eeqa, \beqa, \eeq, \beq]; 1 missing file[cf2.sty].
142450 2013-03-03 18:18:37 /0308/cond-mat.0308335 710000[\psfrag].
142451 2013-03-03 18:17:51 /0308/cond-mat.0308329 410000[\footrulewidth].
142452 2013-03-03 18:17:30 /0308/cond-mat.0308316 1770000[\PACS, \e]; 1 missing file[size11.clo.sty].
142453 2013-03-03 18:17:23 /0308/cond-mat.0308307 1110000[\psfrag].
142454 2013-03-03 18:16:35 /0308/cond-mat.0308298 1050000[\epsfbox, \mib, \epsfxsize]; 2 missing files[subeqna.sty, jpsjbs.sty].
142455 2013-03-03 18:16:26 /0308/cond-mat.0308288 1810000[\theappendix].
142456 2013-03-03 18:16:25 /0308/cond-mat.0308297 920000[\psfig]; 1 missing file[psfig].
142457 2013-03-03 18:16:16 /0308/cond-mat.0308280 3100000[\Book, \pacs, \shorttitle, \Publ, \Name, \psfrag, \upd, \Year, \acknowledgements, \REVIEW].
142458 2013-03-03 18:14:45 /0308/cond-mat.0308267 110000[\tsum].
142459 2013-03-03 18:12:59 /0308/cond-mat.0308211 030000[\extrasenglish, \dateenglish, \captionsenglish].
142460 2013-03-03 18:12:17 /0308/cond-mat.0308205 670000[\twofigures, \@affiliation, \onefigure].
142461 2013-03-03 18:12:06 /0308/cond-mat.0308189 130000[\midrule, \toprule, \bottomrule].
142462 2013-03-03 18:12:05 /0308/cond-mat.0308195 1110000[\whiten].
142463 2013-03-03 18:10:20 /0308/cond-mat.0308172 1420000[\@affiliation].
142464 2013-03-03 18:09:42 /0308/cond-mat.0308158 160000[\address, \thanksref, \PACS, \sep, {frontmatter}, {keyword}]; 1 missing file[PHYEAUTH.cls].
142465 2013-03-03 18:08:57 /0308/cond-mat.0308135 720000[\delimiter].
142466 2013-03-03 18:08:12 /0308/cond-mat.0308110 520000[{keywords}, \appendices]; 1 missing file[IEEEtran.cls].
142467 2013-03-03 18:07:55 /0308/cond-mat.0308122 160000[\address, \thanksref, \sep, \PACS, {frontmatter}, {keyword}]; 1 missing file[PHYEAUTH.cls].
142468 2013-03-03 18:07:01 /0308/cond-mat.0308118 310000[\a].
142469 2013-03-03 18:06:49 /0308/cond-mat.0308098 550000[\kword, \abst, \inst, \recdate, \acknowledgments].
142470 2013-03-03 18:06:28 /0308/cond-mat.0308101 010000[\theappendix].
142471 2013-03-03 18:05:56 /0308/cond-mat.0308091 020000[\Square, \hexagon].
142472 2013-03-03 18:04:47 /0308/cond-mat.0308068 020000[\backslashbox]; 1 missing file[slashbox.sty].
142473 2013-03-03 18:04:26 /0308/cond-mat.0308069 1110000[\setkeys].
142474 2013-03-03 18:03:41 /0308/cond-mat.0308055 030000[\extrasenglish, \dateenglish, \captionsenglish].
142475 2013-03-03 18:00:35 /0308/cond-mat.0308007 0110000[\@affiliation, \onefigure, \stars].
142476 2013-03-03 18:00:22 /0308/astro-ph.0308531 2210000[\theappendix].
142477 2013-03-03 18:00:18 /0308/astro-ph.0308545 010000[\theappendix].
142478 2013-03-03 18:00:14 /0308/cond-mat.0308012 410000[\rotate].
142479 2013-03-03 17:59:47 /0308/astro-ph.0308543 0160000[\affil, {keywords}, \articletitle, \kluwerbib, \upperandlowercase, \email, {chapthebibliography}].
142480 2013-03-03 17:59:45 /0308/astro-ph.0308544 0110000[\affil, \pra, \apj, \plotfiddle, \aap, \prl, \apjs, \reference, {references}, \acknowledgements]; 1 missing file[newpasp.sty].
142481 2013-03-03 17:59:38 /0308/astro-ph.0308536 120000[\citeauthoryear, Align].
142482 2013-03-03 17:59:33 /0308/astro-ph.0308548 0220000[\affil, \authormark, \apj, \apjl, \ga, \aindex, \aap, \acknowledgments, \paindex, \email, \araa, \aj, \epsscale, \altaffilmark, \keywords, \plotone, \altaffiltext, \contact, \plottwo]; 1 missing file[apn3conf.sty].
142483 2013-03-03 17:59:24 /0308/astro-ph.0308532 050000[\endofpaper, \re, \BookTitle, \makeauthorindex, \CopyRight].
142484 2013-03-03 17:59:09 /0308/astro-ph.0308538 120000[\affil, \keywords]; 1 missing file[esapub.cls].
142485 2013-03-03 17:58:43 /0308/astro-ph.0308523 050000[\endofpaper, \re, \BookTitle, \makeauthorindex, \CopyRight].
142486 2013-03-03 17:58:25 /0308/astro-ph.0308506 410000[\theappendix].
142487 2013-03-03 17:58:22 /0308/astro-ph.0308528 030000[\gtrsim, \lesssim, \psfig].
142488 2013-03-03 17:58:14 /0308/astro-ph.0308509 0100000[\citeauthoryear, \opencite, \surname, \institute, {opening}, {article}, \email, \runningauthor, \inlinecite, {acknowledgements}].
142489 2013-03-03 17:58:05 /0308/astro-ph.0308507 6360000[\psfrag].
142490 2013-03-03 17:58:05 /0308/astro-ph.0308512 650000[\endofpaper, \re, \BookTitle, \makeauthorindex, \CopyRight].
142491 2013-03-03 17:57:50 /0308/astro-ph.0308517 0100000[\citeauthoryear, \opencite, \surname, \runningauthor, \institute, {opening}, {article}].
142492 2013-03-03 17:57:32 /0308/astro-ph.0308501 080000[\affil, \mnras, \apj, \reference, {references}, \aap, \acknowledgments]; 1 missing file[newpasp.sty].
142493 2013-03-03 17:57:01 /0308/astro-ph.0308496 11310000[\include].
142494 2013-03-03 17:56:52 /0308/astro-ph.0308467 5210000[\theappendix].
142495 2013-03-03 17:56:48 /0308/astro-ph.0308494 040000[\endofpaper, \BookTitle, \makeauthorindex, \CopyRight].
142496 2013-03-03 17:55:34 /0308/astro-ph.0308463 640000[\firstsection, \ls, \affiliation, {acknowledgements}]; 1 missing file[cupconf.cls].
142497 2013-03-03 17:55:15 /0308/astro-ph.0308472 710000[\theappendix].
142498 2013-03-03 17:54:59 /0308/astro-ph.0308471 090000[\affil, \apj, \apss, \aap, \mnras, \reference, \prd, {references}]; 1 missing file[newpasp.sty].
142499 2013-03-03 17:54:20 /0308/astro-ph.0308462 520000[\marginsize]; 1 missing file[rsflash.sty].
142500 2013-03-03 17:52:51 /0308/astro-ph.0308454 210000[\theappendix].
142501 2013-03-03 17:52:26 /0308/astro-ph.0308439 170000[\astro].
142502 2013-03-03 17:52:18 /0308/astro-ph.0308437 330000[\epsfbox, \epsfxsize]; 1 missing file[apjfonts.sty].
142503 2013-03-03 17:51:40 /0308/astro-ph.0308442 050000[\endofpaper, \re, \BookTitle, \makeauthorindex, \CopyRight].
142504 2013-03-03 17:51:39 /0308/astro-ph.0308445 640000[\authorinfo, \skiplinehalf, \keywords, \supit]; 1 missing file[spie.cls].
142505 2013-03-03 17:51:28 /0308/astro-ph.0308427 170000[\endofpaper, \re, \BookTitle, \makeauthorindex, \CopyRight].
142506 2013-03-03 17:51:24 /0308/astro-ph.0308428 150000[\endofpaper, \re, \BookTitle, \makeauthorindex, \CopyRight].
142507 2013-03-03 17:50:38 /0308/astro-ph.0308416 090000[\affil, \reference, {references}, \plottwo]; 1 missing file[newpasp.sty].
142508 2013-03-03 17:50:32 /0308/astro-ph.0308420 720000[\submitted]; 1 missing file[apjfonts.sty].
142509 2013-03-03 17:49:58 /0308/astro-ph.0308423 180000[{halffigure}, \kword, \abst, \inst]; 1 missing file[jjap2.cls].
142510 2013-03-03 17:49:47 /0308/astro-ph.0308411 250000[\address, \Chapter, \bottomrule]; 2 missing files[marvosym.sty, footnpag.sty].
142511 2013-03-03 17:49:44 /0308/astro-ph.0308408 110000[\submitted].
142512 2013-03-03 17:49:44 /0308/astro-ph.0308413 1030000[\pcite, \scite]; 1 missing file[mncite.sty].
142513 2013-03-03 17:49:25 /0308/astro-ph.0308410 050000[\endofpaper, \re, \BookTitle, \makeauthorindex, \CopyRight].
142514 2013-03-03 17:49:18 /0308/astro-ph.0308414 520000[\scite]; 1 missing file[mncite.sty].
142515 2013-03-03 17:48:26 /0308/astro-ph.0308399 050000[\endofpaper, \re, \BookTitle, \makeauthorindex, \CopyRight].
142516 2013-03-03 17:48:21 /0308/astro-ph.0308400 050000[\endofpaper, \re, \BookTitle, \makeauthorindex, \CopyRight].
142517 2013-03-03 17:48:19 /0308/astro-ph.0308405 010000[\theappendix].
142518 2013-03-03 17:48:14 /0308/astro-ph.0308403 1910000[{centering}].
142519 2013-03-03 17:48:04 /0308/astro-ph.0308388 1630000[\theappendix].
142520 2013-03-03 17:47:47 /0308/astro-ph.0308404 020000[{theacknowledgments}, \layoutstyle].
142521 2013-03-03 17:47:37 /0308/astro-ph.0308387 050000[\affil, \reference, {references}, \acknowledgements]; 1 missing file[newpasp.sty].
142522 2013-03-03 17:47:27 /0308/astro-ph.0308391 2130000[\apj, \lesssim, \pasj, \aap, \altaffilmark, \Received, \FigureFile, \Accepted, \email, \gtrsim, \altaffiltext, \SetRunningHead, \KeyWords]; 1 missing file[pasj00.cls].
142523 2013-03-03 17:47:17 /0308/astro-ph.0308392 150000[\endofpaper, \re, \BookTitle, \makeauthorindex, \CopyRight].
142524 2013-03-03 17:46:21 /0308/astro-ph.0308370 0440000[\@open@row, \@close@row].
142525 2013-03-03 17:46:08 /0308/astro-ph.0308374 2110000[\authorstucture, \lesssim, \resizebox, \includegraphics, \talkauthors, \shorttitle, \firstauthor, \rotatebox, \talktitle, \structure]; 1 missing file[perugia.sty].
142526 2013-03-03 17:45:37 /0308/astro-ph.0308326 3610000[\theappendix].
142527 2013-03-03 17:45:34 /0308/astro-ph.0308348 1240000[{planotable}].
142528 2013-03-03 17:45:05 /0308/astro-ph.0308353 010000[\theappendix].
142529 2013-03-03 17:45:02 /0308/astro-ph.0308340 910000[Align].
142530 2013-03-03 17:44:55 /0308/astro-ph.0308339 0100000[\affil, \apj, \aj, \acknowledgments, \keywords, \mnras, \astap, \reference, {references}]; 1 missing file[newpasp.sty].
142531 2013-03-03 17:44:47 /0308/astro-ph.0308338 1090000[\affil, \mnras, \apj, \reference, \plotone, {references}]; 1 missing file[newpasp.sty].
142532 2013-03-03 17:44:13 /0308/astro-ph.0308318 9100000[\apj, \aj, \aaps, \apjl, \nat, \aap, \mnras, \apjs, \pasp]; 1 missing file[aas_macros.sty].
142533 2013-03-03 17:43:59 /0308/astro-ph.0308331 250000[\authorinfo, \skiplinehalf, \acknowledgments, \keywords, \supit]; 1 missing file[spie.cls].
142534 2013-03-03 17:43:54 /0308/astro-ph.0308332 150000[\authorinfo, \skiplinehalf, \acknowledgments, \keywords, \supit]; 1 missing file[spie.cls].
142535 2013-03-03 17:43:43 /0308/astro-ph.0308334 180000[\sun, \affil, \apj, \reference, {references}, \plotfiddle, \aap]; 1 missing file[newpasp.sty].
142536 2013-03-03 17:43:34 /0308/astro-ph.0308319 2120000[\affil, \apj, \Published, \pasj, \Received, \mnras, \FigureFile, \Accepted, \email, \citet, \SetRunningHead, \KeyWords]; 1 missing file[pasj00.cls].
142537 2013-03-03 17:42:47 /0308/astro-ph.0308313 070000[\affil, \apj, \reference, {references}, \aap, \la]; 1 missing file[IAUS215.sty].
142538 2013-03-03 17:42:42 /0308/astro-ph.0308298 2110000[{acknowledgments}, \firstsection, \ls, \iffontfound, \affiliation, \ns, \pubyear, \checkfont]; 1 missing file[cupconf.cls].
142539 2013-03-03 17:42:33 /0308/astro-ph.0308302 0190000[\affil, \reference, {references}, \plotfiddle]; 1 missing file[newpasp.sty].
142540 2013-03-03 17:41:58 /0308/astro-ph.0308293 040000[\affil, \reference, {references}]; 1 missing file[newpasp.sty].
142541 2013-03-03 17:41:25 /0308/astro-ph.0308270 1120000[\endpage, \epsffile, \runningtitle, \keywords, \address, \reference, \beginpage, \runningauthor, {references}, \epsfxsize, \epsfysize]; 1 missing file[jkas35.sty].
142542 2013-03-03 17:41:13 /0308/astro-ph.0308265 190000[\affil, \apj, \aj, \aap, \prl, \acknowledgments, \reference, {references}]; 1 missing file[newpasp.sty].
142543 2013-03-03 17:41:11 /0308/astro-ph.0308260 2010000[\theappendix].
142544 2013-03-03 17:40:21 /0308/astro-ph.0308253 410000[\subsubsubsection].
142545 2013-03-03 17:40:15 /0308/astro-ph.0308228 10320000[\rotate, \tablehead, \tablewidth, {deluxetable}, Align, \startdata, \tablecomments, \plotone, \tablecaption, \enddata]; 1 missing file[deluxetable.sty].
142546 2013-03-03 17:40:08 /0308/astro-ph.0308244 030000[\shorttitle, \shortauthor]; 1 missing file[gcdv.sty].
142547 2013-03-03 17:40:08 /0308/astro-ph.0308263 050000[\affil, \plotone, \reference, {references}]; 1 missing file[newpasp.sty].
142548 2013-03-03 17:39:51 /0308/astro-ph.0308235 110000[\theappendix].
142549 2013-03-03 17:39:38 /0308/astro-ph.0308250 0150000[\affil, \apj, \aap, \micron, \mnras, \plotone, \reference, {references}]; 1 missing file[newpasp.sty].
142550 2013-03-03 17:39:34 /0308/astro-ph.0308234 0240000[\affil, \apj, \aj, \apjl, \ga, \plotfiddle, \aap, \acknowledgments, \la, \mnras, \reference, {references}, \araa]; 1 missing file[newpasp.sty].
142551 2013-03-03 17:39:09 /0308/astro-ph.0308227 310000[{keywords}]; 1 missing file[basi.cls].
142552 2013-03-03 17:39:01 /0308/astro-ph.0308226 230000[\affil, \plotone]; 1 missing file[newpasp.sty].
142553 2013-03-03 17:38:54 /0308/astro-ph.0308232 070000[\affil, \reference, {references}, \acknowledgements, \ga, \la]; 1 missing file[newpasp.sty].
142554 2013-03-03 17:38:46 /0308/astro-ph.0308202 010000[\theappendix].
142555 2013-03-03 17:38:37 /0308/astro-ph.0308204 1180000[\affil, \apj, \aj, \citep, \ltsim, \pasj, \aap, \Received, \mnras, \FigureFile, \Accepted, \email, \MO, \citet, \araa, \gtsim, \SetRunningHead, \KeyWords]; 1 missing file[pasj00.cls].
142556 2013-03-03 17:38:35 /0308/astro-ph.0308137 74190000[\tablerefs, \tablecolumns, \tabletypesize, {deluxetable}, \tablecomments, \startdata, \enddata, \colhead, \nodata, \tablenotetext, \tablehead, \tablewidth, \tableline, \sidehead, Align, \tablecaption, \tablenotemark]; 2 missing files[deluxetable.sty, cha
142557 2013-03-03 17:38:18 /0308/astro-ph.0308207 110000[\affil]; 1 missing file[esapub.cls].
142558 2013-03-03 17:38:14 /0308/astro-ph.0308209 3670000[\thechapter, \@currentID, \HeadText, {thereferences}]; 2 missing files[ociwsymp3.sty, caps.cls].
142559 2013-03-03 17:38:06 /0308/astro-ph.0308211 260000[\firstname, \surname, \email, \affiliation, \homepage]; 2 missing files[a.cls, .cls].
142560 2013-03-03 17:37:44 /0308/astro-ph.0308200 4810000[\psfig].
142561 2013-03-03 17:37:28 /0308/astro-ph.0308187 2990000[\headertitle, {acknowledge}, \mainauthor, \pcite, \summary, \affiliationmark, \affiliation, \psfig]; 1 missing file[nature-ejb.sty].
142562 2013-03-03 17:36:53 /0308/astro-ph.0308166 2610000[\thetheorem].
142563 2013-03-03 17:36:44 /0308/astro-ph.0308141 2110000[\theappendix].
142564 2013-03-03 17:36:37 /0308/astro-ph.0308154 1250000[\solar, \apj, \lesssim, \pasj, \apjl, \nat, \aap, \endfoot, \Accepted, \email, \KeyWords, \iaucirc, {longtable}, \endhead, \altaffilmark, \Received, \apjs, \mnras, Align, \FigureFile, \gtrsim, \citet, \altaffiltext, \SetRunningHead]; 1 missing file[pasj0
142565 2013-03-03 17:36:28 /0308/astro-ph.0308152 710000[\iiint].
142566 2013-03-03 17:36:19 /0308/astro-ph.0308155 340000[\endofpaper, \BookTitle, \makeauthorindex, \CopyRight].
142567 2013-03-03 17:36:14 /0308/astro-ph.0308157 020000[\psfig]; 1 missing file[{psfig.sty}].
142568 2013-03-03 17:36:12 /0308/astro-ph.0308160 010000[\layoutstyle].
142569 2013-03-03 17:35:59 /0308/astro-ph.0308142 050000[\affil, \reference, {references}, \plotfiddle]; 1 missing file[newpasp.sty].
142570 2013-03-03 17:35:47 /0308/astro-ph.0308126 320000[\submitted]; 1 missing file[apjfonts.sty].
142571 2013-03-03 17:35:46 /0308/astro-ph.0308134 7820000[\thechapter, \@currentID, \HeadText, {thereferences}]; 2 missing files[ociwsymp1.sty, caps.cls].
142572 2013-03-03 17:35:32 /0308/astro-ph.0308122 020000[\epsfbox, \epsfxsize].
142573 2013-03-03 17:35:32 /0308/astro-ph.0308138 010000[\toctitle].
142574 2013-03-03 17:35:09 /0308/astro-ph.0308087 1010000[\theappendix].
142575 2013-03-03 17:35:05 /0308/astro-ph.0308100 24170000[{dedication}, \campus, \field, \degreemonth, \degreeyear, \numberofmembers, \thechapter, \astroncite, {acknowledgements}, \copyrightpage, \committeememberone, \committeemembertwo, \chair, \@currentID, {frontmatter}, \degree]; 2 missing files[styles/ucsct
142576 2013-03-03 17:35:05 /0308/astro-ph.0308115 120000[\citeauthoryear, \citeuthoryear].
142577 2013-03-03 17:34:58 /0308/astro-ph.0308116 15170000[{supertabular}, \tabletail, Align, \nextline, \secondtablehead, \tablehead]; 1 missing file[suprtab.sty].
142578 2013-03-03 17:34:54 /0308/astro-ph.0308117 420000[\psfig]; 1 missing file[psfig].
142579 2013-03-03 17:34:36 /0308/astro-ph.0308097 410000[\theappendix].
142580 2013-03-03 17:33:44 /0308/astro-ph.0308086 2150000[\affil, \apj, \aj, \citep, \pasj, \aap, \Received, \mnras, \Accepted, \email, \FigureFile, \pasp, \citet, \SetRunningHead, \KeyWords]; 1 missing file[pasj00.cls].
142581 2013-03-03 17:33:42 /0308/astro-ph.0308055 5390000[\affil, \citep, \accepted, {deluxetable}, \tablecomments, \startdata, \ccc, \jupiter, \url, \enddata, \received, \colhead, \epsscale, \keywords, Align, \tablecaption, \revised, \citet, \plottwo, \apj, \phm, \tablecolumns, \degr, \slugcomment, \aap, \ackn
142582 2013-03-03 17:33:29 /0308/astro-ph.0308090 0170000[{keywords}, \articletitle, \kluwerbib, \upperandlowercase, \anxx, {chapthebibliography}].
142583 2013-03-03 17:33:17 /0308/astro-ph.0308079 0370000[\chapbibliography, {acknowledgments}, \sidebyside, {keywords}, \articletitle, \upperandlowercase, {chapthebibliography}, \altaffilmark, \articlesubtitle, \kluwerbib, \chapbblname, \altaffiltext].
142584 2013-03-03 17:33:15 /0308/astro-ph.0308064 7100000[\arcmin, \draft, \altaffilmark, \Received, \Accepted, \email, \arcsec, \altaffiltext, \SetRunningHead, \KeyWords]; 1 missing file[pasj00.cls].
142585 2013-03-03 17:33:01 /0308/astro-ph.0308052 030000[\citeauthoryear].
142586 2013-03-03 17:32:51 /0308/astro-ph.0308041 1030000[\theappendix].
142587 2013-03-03 17:32:48 /0308/astro-ph.0308029 1610000[\submitted].
142588 2013-03-03 17:32:42 /0308/astro-ph.0308053 2140000[\sidebyside, \affil, {keywords}, \articletitle, \upperandlowercase, \citename, \anxx, {chapthebibliography}, \kluwerbib].
142589 2013-03-03 17:32:34 /0308/astro-ph.0308056 2160000[\affil, \articlesubtitle, {keywords}, \articletitle, \kluwerbib, \upperandlowercase, \email, {chapthebibliography}].
142590 2013-03-03 17:32:27 /0308/astro-ph.0308044 1940000[\cor, \rotate, \psfig, \institute].
142591 2013-03-03 17:32:26 /0308/astro-ph.0308043 040000[\affil, \reference, {references}]; 1 missing file[newpasp.sty].
142592 2013-03-03 17:31:53 /0307/quant-ph.0307220 720000[\theappendix].
142593 2013-03-03 17:31:51 /0308/astro-ph.0308023 120000[{theacknowledgments}, \layoutstyle].
142594 2013-03-03 17:31:49 /0308/astro-ph.0308022 130000[\address, \TitreGlobal, \runningtitle]; 1 missing file[edp-conf.cls].
142595 2013-03-03 17:31:05 /0308/astro-ph.0308002 170000[\address, \epsfbox, \pacs, \epsfxsize, \mathfrak, \keywords].
142596 2013-03-03 17:30:57 /0307/quant-ph.0307235 010000[\umlautelow].
142597 2013-03-03 17:30:45 /0307/quant-ph.0307221 5520000[{comment}].
142598 2013-03-03 17:30:24 /0307/quant-ph.0307168 1910000[\bezier].
142599 2013-03-03 17:30:09 /0307/quant-ph.0307209 1010000[\theappendix].
142600 2013-03-03 17:30:02 /0307/quant-ph.0307196 2860000[{history}, \tfrac, \refcite, \keywords, \received]; 1 missing file[ws.sty].
<<< >>>

[0] [200] [400] [600] [800] [1000] [1200] [1400] [1600] [1800] [2000] [2200] [2400] [2600] [2800] [3000] [3200] [3400] [3600] [3800] [4000] [4200] [4400] [4600] [4800] [5000] [5200] [5400] [5600] [5800] [6000] [6200] [6400] [6600] [6800] [7000] [7200] [7400] [7600] [7800] [8000] [8200] [8400] [8600] [8800] [9000] [9200] [9400] [9600] [9800] [10000] [10200] [10400] [10600] [10800] [11000] [11200] [11400] [11600] [11800] [12000] [12200] [12400] [12600] [12800] [13000] [13200] [13400] [13600] [13800] [14000] [14200] [14400] [14600] [14800] [15000] [15200] [15400] [15600] [15800] [16000] [16200] [16400] [16600] [16800] [17000] [17200] [17400] [17600] [17800] [18000] [18200] [18400] [18600] [18800] [19000] [19200] [19400] [19600] [19800] [20000] [20200] [20400] [20600] [20800] [21000] [21200] [21400] [21600] [21800] [22000] [22200] [22400] [22600] [22800] [23000] [23200] [23400] [23600] [23800] [24000] [24200] [24400] [24600] [24800] [25000] [25200] [25400] [25600] [25800] [26000] [26200] [26400] [26600] [26800] [27000] [27200] [27400] [27600] [27800] [28000] [28200] [28400] [28600] [28800] [29000] [29200] [29400] [29600] [29800] [30000] [30200] [30400] [30600] [30800] [31000] [31200] [31400] [31600] [31800] [32000] [32200] [32400] [32600] [32800] [33000] [33200] [33400] [33600] [33800] [34000] [34200] [34400] [34600] [34800] [35000] [35200] [35400] [35600] [35800] [36000] [36200] [36400] [36600] [36800] [37000] [37200] [37400] [37600] [37800] [38000] [38200] [38400] [38600] [38800] [39000] [39200] [39400] [39600] [39800] [40000] [40200] [40400] [40600] [40800] [41000] [41200] [41400] [41600] [41800] [42000] [42200] [42400] [42600] [42800] [43000] [43200] [43400] [43600] [43800] [44000] [44200] [44400] [44600] [44800] [45000] [45200] [45400] [45600] [45800] [46000] [46200] [46400] [46600] [46800] [47000] [47200] [47400] [47600] [47800] [48000] [48200] [48400] [48600] [48800] [49000] [49200] [49400] [49600] [49800] [50000] [50200] [50400] [50600] [50800] [51000] [51200] [51400] [51600] [51800] [52000] [52200] [52400] [52600] [52800] [53000] [53200] [53400] [53600] [53800] [54000] [54200] [54400] [54600] [54800] [55000] [55200] [55400] [55600] [55800] [56000] [56200] [56400] [56600] [56800] [57000] [57200] [57400] [57600] [57800] [58000] [58200] [58400] [58600] [58800] [59000] [59200] [59400] [59600] [59800] [60000] [60200] [60400] [60600] [60800] [61000] [61200] [61400] [61600] [61800] [62000] [62200] [62400] [62600] [62800] [63000] [63200] [63400] [63600] [63800] [64000] [64200] [64400] [64600] [64800] [65000] [65200] [65400] [65600] [65800] [66000] [66200] [66400] [66600] [66800] [67000] [67200] [67400] [67600] [67800] [68000] [68200] [68400] [68600] [68800] [69000] [69200] [69400] [69600] [69800] [70000] [70200] [70400] [70600] [70800] [71000] [71200] [71400] [71600] [71800] [72000] [72200] [72400] [72600] [72800] [73000] [73200] [73400] [73600] [73800] [74000] [74200] [74400] [74600] [74800] [75000] [75200] [75400] [75600] [75800] [76000] [76200] [76400] [76600] [76800] [77000] [77200] [77400] [77600] [77800] [78000] [78200] [78400] [78600] [78800] [79000] [79200] [79400] [79600] [79800] [80000] [80200] [80400] [80600] [80800] [81000] [81200] [81400] [81600] [81800] [82000] [82200] [82400] [82600] [82800] [83000] [83200] [83400] [83600] [83800] [84000] [84200] [84400] [84600] [84800] [85000] [85200] [85400] [85600] [85800] [86000] [86200] [86400] [86600] [86800] [87000] [87200] [87400] [87600] [87800] [88000] [88200] [88400] [88600] [88800] [89000] [89200] [89400] [89600] [89800] [90000] [90200] [90400] [90600] [90800] [91000] [91200] [91400] [91600] [91800] [92000] [92200] [92400] [92600] [92800] [93000] [93200] [93400] [93600] [93800] [94000] [94200] [94400] [94600] [94800] [95000] [95200] [95400] [95600] [95800] [96000] [96200] [96400] [96600] [96800] [97000] [97200] [97400] [97600] [97800] [98000] [98200] [98400] [98600] [98800] [99000] [99200] [99400] [99600] [99800] [100000] [100200] [100400] [100600] [100800] [101000] [101200] [101400] [101600] [101800] [102000] [102200] [102400] [102600] [102800] [103000] [103200] [103400] [103600] [103800] [104000] [104200] [104400] [104600] [104800] [105000] [105200] [105400] [105600] [105800] [106000] [106200] [106400] [106600] [106800] [107000] [107200] [107400] [107600] [107800] [108000] [108200] [108400] [108600] [108800] [109000] [109200] [109400] [109600] [109800] [110000] [110200] [110400] [110600] [110800] [111000] [111200] [111400] [111600] [111800] [112000] [112200] [112400] [112600] [112800] [113000] [113200] [113400] [113600] [113800] [114000] [114200] [114400] [114600] [114800] [115000] [115200] [115400] [115600] [115800] [116000] [116200] [116400] [116600] [116800] [117000] [117200] [117400] [117600] [117800] [118000] [118200] [118400] [118600] [118800] [119000] [119200] [119400] [119600] [119800] [120000] [120200] [120400] [120600] [120800] [121000] [121200] [121400] [121600] [121800] [122000] [122200] [122400] [122600] [122800] [123000] [123200] [123400] [123600] [123800] [124000] [124200] [124400] [124600] [124800] [125000] [125200] [125400] [125600] [125800] [126000] [126200] [126400] [126600] [126800] [127000] [127200] [127400] [127600] [127800] [128000] [128200] [128400] [128600] [128800] [129000] [129200] [129400] [129600] [129800] [130000] [130200] [130400] [130600] [130800] [131000] [131200] [131400] [131600] [131800] [132000] [132200] [132400] [132600] [132800] [133000] [133200] [133400] [133600] [133800] [134000] [134200] [134400] [134600] [134800] [135000] [135200] [135400] [135600] [135800] [136000] [136200] [136400] [136600] [136800] [137000] [137200] [137400] [137600] [137800] [138000] [138200] [138400] [138600] [138800] [139000] [139200] [139400] [139600] [139800] [140000] [140200] [140400] [140600] [140800] [141000] [141200] [141400] [141600] [141800] [142000] [142200] [142400] [142600] [142800] [143000] [143200] [143400] [143600] [143800] [144000] [144200] [144400] [144600] [144800] [145000] [145200] [145400] [145600] [145800] [146000] [146200] [146400] [146600] [146800] [147000] [147200] [147400] [147600] [147800] [148000] [148200] [148400] [148600] [148800] [149000] [149200] [149400] [149600] [149800] [150000] [150200] [150400] [150600] [150800] [151000] [151200] [151400] [151600] [151800] [152000] [152200] [152400] [152600] [152800] [153000] [153200] [153400] [153600] [153800] [154000] [154200] [154400] [154600] [154800] [155000] [155200] [155400] [155600] [155800] [156000] [156200] [156400] [156600] [156800] [157000] [157200] [157400] [157600] [157800] [158000] [158200] [158400] [158600] [158800] [159000] [159200] [159400] [159600] [159800] [160000] [160200] [160400] [160600] [160800] [161000] [161200] [161400] [161600] [161800] [162000] [162200] [162400] [162600] [162800] [163000] [163200] [163400] [163600] [163800] [164000] [164200] [164400] [164600]
 
  The service has been written by
Heinrich Stamerjohanns